sensor_id;sensor_type;location;lat;lon;timestamp;pressure;altitude;pressure_sealevel;temperature;humidity
22938;BME280;11634;42.734;23.298;2022-10-18T00:02:10;96826.88;;;5.93;100.00
22938;BME280;11634;42.734;23.298;2022-10-18T00:04:36;96838.41;;;6.04;100.00
22938;BME280;11634;42.734;23.298;2022-10-18T00:07:01;96807.91;;;5.74;100.00
22938;BME280;11634;42.734;23.298;2022-10-18T00:09:27;96831.75;;;5.81;100.00
22938;BME280;11634;42.734;23.298;2022-10-18T00:11:53;96834.34;;;5.81;100.00
22938;BME280;11634;42.734;23.298;2022-10-18T00:14:19;96802.59;;;5.59;100.00
22938;BME280;11634;42.734;23.298;2022-10-18T00:16:45;96815.34;;;5.62;100.00
22938;BME280;11634;42.734;23.298;2022-10-18T00:19:10;96823.63;;;5.70;100.00
22938;BME280;11634;42.734;23.298;2022-10-18T00:21:36;96816.41;;;5.78;100.00
22938;BME280;11634;42.734;23.298;2022-10-18T00:24:01;96798.47;;;5.73;100.00
22938;BME280;11634;42.734;23.298;2022-10-18T00:26:28;96749.28;;;5.38;100.00
22938;BME280;11634;42.734;23.298;2022-10-18T00:28:57;96799.06;;;5.60;100.00
22938;BME280;11634;42.734;23.298;2022-10-18T00:31:26;96790.22;;;5.65;100.00
22938;BME280;11634;42.734;23.298;2022-10-18T00:33:54;96794.94;;;5.56;100.00
22938;BME280;11634;42.734;23.298;2022-10-18T00:36:20;96785.50;;;5.37;100.00
22938;BME280;11634;42.734;23.298;2022-10-18T00:38:47;96760.34;;;5.22;100.00
22938;BME280;11634;42.734;23.298;2022-10-18T00:41:15;96763.75;;;5.22;100.00
22938;BME280;11634;42.734;23.298;2022-10-18T00:46:41;96787.38;;;5.33;100.00
22938;BME280;11634;42.734;23.298;2022-10-18T00:49:11;96777.09;;;5.32;100.00
22938;BME280;11634;42.734;23.298;2022-10-18T00:51:57;96762.25;;;5.18;100.00
22938;BME280;11634;42.734;23.298;2022-10-18T00:54:25;96783.31;;;5.28;100.00
22938;BME280;11634;42.734;23.298;2022-10-18T00:56:51;96777.38;;;5.26;100.00
22938;BME280;11634;42.734;23.298;2022-10-18T00:59:18;96773.00;;;5.28;100.00
22938;BME280;11634;42.734;23.298;2022-10-18T01:01:44;96789.25;;;5.10;100.00
22938;BME280;11634;42.734;23.298;2022-10-18T01:04:11;96778.47;;;5.00;100.00
22938;BME280;11634;42.734;23.298;2022-10-18T01:09:27;96772.38;;;4.82;100.00
22938;BME280;11634;42.734;23.298;2022-10-18T01:12:19;96768.31;;;4.76;100.00
22938;BME280;11634;42.734;23.298;2022-10-18T01:20:22;96762.34;;;4.76;100.00
22938;BME280;11634;42.734;23.298;2022-10-18T01:23:04;96750.44;;;4.52;100.00
22938;BME280;11634;42.734;23.298;2022-10-18T01:25:41;96774.56;;;4.71;100.00
22938;BME280;11634;42.734;23.298;2022-10-18T01:31:32;96757.81;;;4.61;100.00
22938;BME280;11634;42.734;23.298;2022-10-18T01:34:02;96763.81;;;4.81;100.00
22938;BME280;11634;42.734;23.298;2022-10-18T01:36:35;96773.72;;;4.91;100.00
22938;BME280;11634;42.734;23.298;2022-10-18T01:39:10;96765.09;;;4.91;100.00
22938;BME280;11634;42.734;23.298;2022-10-18T01:41:38;96752.28;;;4.70;100.00
22938;BME280;11634;42.734;23.298;2022-10-18T01:44:09;96769.13;;;4.78;100.00
22938;BME280;11634;42.734;23.298;2022-10-18T01:46:38;96759.69;;;4.77;100.00
22938;BME280;11634;42.734;23.298;2022-10-18T01:49:04;96754.53;;;4.77;100.00
22938;BME280;11634;42.734;23.298;2022-10-18T01:51:31;96753.56;;;4.80;100.00
22938;BME280;11634;42.734;23.298;2022-10-18T01:53:57;96768.31;;;4.76;100.00
22938;BME280;11634;42.734;23.298;2022-10-18T01:59:21;96765.19;;;4.89;100.00
22938;BME280;11634;42.734;23.298;2022-10-18T02:02:01;96761.97;;;4.85;100.00
22938;BME280;11634;42.734;23.298;2022-10-18T02:07:35;96756.09;;;4.81;100.00
22938;BME280;11634;42.734;23.298;2022-10-18T02:10:17;96753.63;;;4.78;100.00
22938;BME280;11634;42.734;23.298;2022-10-18T02:12:47;96751.44;;;4.69;100.00
22938;BME280;11634;42.734;23.298;2022-10-18T02:15:18;96750.59;;;4.69;100.00
22938;BME280;11634;42.734;23.298;2022-10-18T02:17:45;96754.97;;;4.67;100.00
22938;BME280;11634;42.734;23.298;2022-10-18T02:20:13;96733.44;;;4.68;100.00
22938;BME280;11634;42.734;23.298;2022-10-18T02:22:41;96739.88;;;4.58;100.00
22938;BME280;11634;42.734;23.298;2022-10-18T02:25:15;96716.50;;;4.42;100.00
22938;BME280;11634;42.734;23.298;2022-10-18T02:27:41;96744.38;;;4.53;100.00
22938;BME280;11634;42.734;23.298;2022-10-18T02:30:07;96749.06;;;4.43;100.00
22938;BME280;11634;42.734;23.298;2022-10-18T02:32:40;96752.38;;;4.47;100.00
22938;BME280;11634;42.734;23.298;2022-10-18T02:35:10;96730.63;;;4.32;100.00
22938;BME280;11634;42.734;23.298;2022-10-18T02:37:41;96751.03;;;4.37;100.00
22938;BME280;11634;42.734;23.298;2022-10-18T02:40:09;96747.91;;;4.31;100.00
22938;BME280;11634;42.734;23.298;2022-10-18T02:42:36;96729.78;;;4.32;100.00
22938;BME280;11634;42.734;23.298;2022-10-18T02:45:04;96736.91;;;4.47;100.00
22938;BME280;11634;42.734;23.298;2022-10-18T02:47:30;96738.84;;;4.83;100.00
22938;BME280;11634;42.734;23.298;2022-10-18T02:49:55;96740.03;;;4.94;100.00
22938;BME280;11634;42.734;23.298;2022-10-18T02:52:21;96747.91;;;4.91;100.00
22938;BME280;11634;42.734;23.298;2022-10-18T02:54:47;96753.56;;;4.80;100.00
22938;BME280;11634;42.734;23.298;2022-10-18T02:57:12;96728.22;;;4.49;100.00
22938;BME280;11634;42.734;23.298;2022-10-18T02:59:38;96734.28;;;4.48;100.00
22938;BME280;11634;42.734;23.298;2022-10-18T03:02:03;96758.34;;;4.69;100.00
22938;BME280;11634;42.734;23.298;2022-10-18T03:04:29;96752.03;;;4.76;100.00
22938;BME280;11634;42.734;23.298;2022-10-18T03:06:54;96754.66;;;4.74;100.00
22938;BME280;11634;42.734;23.298;2022-10-18T03:09:20;96754.00;;;4.69;100.00
22938;BME280;11634;42.734;23.298;2022-10-18T03:11:45;96746.78;;;4.57;100.00
22938;BME280;11634;42.734;23.298;2022-10-18T03:14:11;96744.38;;;4.53;100.00
22938;BME280;11634;42.734;23.298;2022-10-18T03:16:36;96747.97;;;4.49;100.00
22938;BME280;11634;42.734;23.298;2022-10-18T03:19:02;96745.03;;;4.58;100.00
22938;BME280;11634;42.734;23.298;2022-10-18T03:21:28;96739.16;;;4.54;100.00
22938;BME280;11634;42.734;23.298;2022-10-18T03:23:53;96726.81;;;4.42;100.00
22938;BME280;11634;42.734;23.298;2022-10-18T03:26:19;96746.00;;;4.55;100.00
22938;BME280;11634;42.734;23.298;2022-10-18T03:28:45;96743.63;;;4.51;100.00
22938;BME280;11634;42.734;23.298;2022-10-18T03:31:11;96725.34;;;4.35;100.00
22938;BME280;11634;42.734;23.298;2022-10-18T03:33:36;96746.19;;;4.51;100.00
22938;BME280;11634;42.734;23.298;2022-10-18T03:36:02;96727.97;;;4.34;100.00
22938;BME280;11634;42.734;23.298;2022-10-18T03:38:28;96739.72;;;4.41;100.00
22938;BME280;11634;42.734;23.298;2022-10-18T03:40:53;96732.13;;;4.38;100.00
22938;BME280;11634;42.734;23.298;2022-10-18T03:43:19;96734.22;;;4.29;100.00
22938;BME280;11634;42.734;23.298;2022-10-18T03:45:47;96733.75;;;4.19;100.00
22938;BME280;11634;42.734;23.298;2022-10-18T03:48:13;96746.47;;;4.24;100.00
22938;BME280;11634;42.734;23.298;2022-10-18T03:50:38;96753.38;;;4.22;100.00
22938;BME280;11634;42.734;23.298;2022-10-18T03:53:04;96728.59;;;4.19;100.00
22938;BME280;11634;42.734;23.298;2022-10-18T03:55:29;96754.66;;;4.33;100.00
22938;BME280;11634;42.734;23.298;2022-10-18T03:57:55;96730.53;;;4.14;100.00
22938;BME280;11634;42.734;23.298;2022-10-18T04:00:21;96713.09;;;3.99;100.00
22938;BME280;11634;42.734;23.298;2022-10-18T04:02:47;96734.75;;;4.15;100.00
22938;BME280;11634;42.734;23.298;2022-10-18T04:05:12;96752.50;;;4.23;100.00
22938;BME280;11634;42.734;23.298;2022-10-18T04:07:38;96718.00;;;4.27;100.00
22938;BME280;11634;42.734;23.298;2022-10-18T04:10:07;96750.41;;;4.53;100.00
22938;BME280;11634;42.734;23.298;2022-10-18T04:12:33;96709.00;;;4.36;100.00
22938;BME280;11634;42.734;23.298;2022-10-18T04:14:58;96741.66;;;4.57;100.00
22938;BME280;11634;42.734;23.298;2022-10-18T04:17:24;96765.34;;;4.65;100.00
22938;BME280;11634;42.734;23.298;2022-10-18T04:19:49;96732.84;;;4.41;100.00
22938;BME280;11634;42.734;23.298;2022-10-18T04:22:15;96750.63;;;4.47;100.00
22938;BME280;11634;42.734;23.298;2022-10-18T04:24:43;96759.16;;;4.49;100.00
22938;BME280;11634;42.734;23.298;2022-10-18T04:27:09;96753.25;;;4.46;100.00
22938;BME280;11634;42.734;23.298;2022-10-18T04:29:34;96750.59;;;4.28;100.00
22938;BME280;11634;42.734;23.298;2022-10-18T04:32:00;96719.22;;;4.17;100.00
22938;BME280;11634;42.734;23.298;2022-10-18T04:34:26;96709.53;;;4.02;100.00
22938;BME280;11634;42.734;23.298;2022-10-18T04:36:51;96730.34;;;4.19;100.00
22938;BME280;11634;42.734;23.298;2022-10-18T04:39:17;96736.31;;;4.19;100.00
22938;BME280;11634;42.734;23.298;2022-10-18T04:41:42;96756.69;;;4.25;100.00
22938;BME280;11634;42.734;23.298;2022-10-18T04:44:08;96739.41;;;4.07;100.00
22938;BME280;11634;42.734;23.298;2022-10-18T04:46:34;96747.94;;;4.08;100.00
22938;BME280;11634;42.734;23.298;2022-10-18T04:48:59;96726.84;;;3.98;100.00
22938;BME280;11634;42.734;23.298;2022-10-18T04:51:29;96694.88;;;3.82;100.00
22938;BME280;11634;42.734;23.298;2022-10-18T04:53:55;96739.16;;;4.13;100.00
22938;BME280;11634;42.734;23.298;2022-10-18T04:56:21;96743.47;;;4.13;100.00
22938;BME280;11634;42.734;23.298;2022-10-18T04:58:47;96694.72;;;3.87;100.00
22938;BME280;11634;42.734;23.298;2022-10-18T05:01:13;96741.53;;;4.18;100.00
22938;BME280;11634;42.734;23.298;2022-10-18T05:03:38;96725.91;;;4.01;100.00
22938;BME280;11634;42.734;23.298;2022-10-18T05:06:04;96735.56;;;4.17;100.00
22938;BME280;11634;42.734;23.298;2022-10-18T05:08:31;96723.09;;;4.07;100.00
22938;BME280;11634;42.734;23.298;2022-10-18T05:10:57;96739.91;;;4.15;100.00
22938;BME280;11634;42.734;23.298;2022-10-18T05:13:23;96738.78;;;4.22;100.00
22938;BME280;11634;42.734;23.298;2022-10-18T05:15:48;96740.44;;;4.23;100.00
22938;BME280;11634;42.734;23.298;2022-10-18T05:18:14;96752.78;;;4.36;100.00
22938;BME280;11634;42.734;23.298;2022-10-18T05:20:40;96750.88;;;4.41;100.00
22938;BME280;11634;42.734;23.298;2022-10-18T05:23:05;96740.50;;;4.43;100.00
22938;BME280;11634;42.734;23.298;2022-10-18T05:25:39;96743.75;;;4.48;100.00
22938;BME280;11634;42.734;23.298;2022-10-18T05:28:06;96749.13;;;4.63;100.00
22938;BME280;11634;42.734;23.298;2022-10-18T05:30:32;96739.09;;;4.56;100.00
22938;BME280;11634;42.734;23.298;2022-10-18T05:32:58;96761.97;;;4.85;100.00
22938;BME280;11634;42.734;23.298;2022-10-18T05:35:23;96732.81;;;4.83;100.00
22938;BME280;11634;42.734;23.298;2022-10-18T05:37:49;96765.78;;;5.16;100.00
22938;BME280;11634;42.734;23.298;2022-10-18T05:40:15;96763.66;;;5.05;100.00
22938;BME280;11634;42.734;23.298;2022-10-18T05:42:40;96772.94;;;5.09;100.00
22938;BME280;11634;42.734;23.298;2022-10-18T05:45:06;96772.78;;;5.12;100.00
22938;BME280;11634;42.734;23.298;2022-10-18T05:47:32;96782.09;;;5.16;100.00
22938;BME280;11634;42.734;23.298;2022-10-18T05:49:57;96776.84;;;5.18;100.00
22938;BME280;11634;42.734;23.298;2022-10-18T05:52:23;96770.47;;;5.26;100.00
22938;BME280;11634;42.734;23.298;2022-10-18T05:54:48;96784.38;;;5.42;100.00
22938;BME280;11634;42.734;23.298;2022-10-18T05:57:14;96730.84;;;5.09;100.00
22938;BME280;11634;42.734;23.298;2022-10-18T05:59:40;96783.56;;;5.42;100.00
22938;BME280;11634;42.734;23.298;2022-10-18T06:02:05;96767.78;;;5.29;100.00
22938;BME280;11634;42.734;23.298;2022-10-18T06:04:31;96789.63;;;5.41;100.00
22938;BME280;11634;42.734;23.298;2022-10-18T06:06:56;96760.63;;;5.54;100.00
22938;BME280;11634;42.734;23.298;2022-10-18T06:09:22;96782.16;;;5.73;100.00
22938;BME280;11634;42.734;23.298;2022-10-18T06:11:47;96796.28;;;5.84;100.00
22938;BME280;11634;42.734;23.298;2022-10-18T06:14:13;96749.13;;;5.43;100.00
22938;BME280;11634;42.734;23.298;2022-10-18T06:16:38;96764.00;;;5.94;100.00
22938;BME280;11634;42.734;23.298;2022-10-18T06:19:04;96794.84;;;6.15;100.00
22938;BME280;11634;42.734;23.298;2022-10-18T06:21:29;96802.47;;;6.18;100.00
22938;BME280;11634;42.734;23.298;2022-10-18T06:23:57;96769.22;;;6.11;100.00
22938;BME280;11634;42.734;23.298;2022-10-18T06:26:24;96801.53;;;6.38;100.00
22938;BME280;11634;42.734;23.298;2022-10-18T06:28:50;96793.91;;;6.53;100.00
22938;BME280;11634;42.734;23.298;2022-10-18T06:31:16;96784.81;;;6.45;100.00
22938;BME280;11634;42.734;23.298;2022-10-18T06:33:42;96778.34;;;6.71;100.00
22938;BME280;11634;42.734;23.298;2022-10-18T06:36:13;96792.88;;;6.74;100.00
22938;BME280;11634;42.734;23.298;2022-10-18T06:38:39;96802.56;;;7.04;100.00
22938;BME280;11634;42.734;23.298;2022-10-18T06:41:06;96793.44;;;7.14;100.00
22938;BME280;11634;42.734;23.298;2022-10-18T06:43:33;96797.56;;;7.35;100.00
22938;BME280;11634;42.734;23.298;2022-10-18T06:46:00;96803.69;;;7.49;100.00
22938;BME280;11634;42.734;23.298;2022-10-18T06:48:27;96794.41;;;7.62;100.00
22938;BME280;11634;42.734;23.298;2022-10-18T06:50:55;96781.00;;;7.86;100.00
22938;BME280;11634;42.734;23.298;2022-10-18T06:53:25;96798.25;;;8.03;100.00
22938;BME280;11634;42.734;23.298;2022-10-18T06:55:51;96786.69;;;7.93;100.00
22938;BME280;11634;42.734;23.298;2022-10-18T06:58:17;96800.59;;;8.07;100.00
22938;BME280;11634;42.734;23.298;2022-10-18T07:00:43;96802.22;;;8.25;100.00
22938;BME280;11634;42.734;23.298;2022-10-18T07:03:10;96779.59;;;7.96;100.00
22938;BME280;11634;42.734;23.298;2022-10-18T07:05:36;96774.06;;;8.19;100.00
22938;BME280;11634;42.734;23.298;2022-10-18T07:08:02;96800.91;;;8.49;100.00
22938;BME280;11634;42.734;23.298;2022-10-18T07:10:28;96808.88;;;8.46;100.00
22938;BME280;11634;42.734;23.298;2022-10-18T07:12:53;96810.69;;;8.44;100.00
22938;BME280;11634;42.734;23.298;2022-10-18T07:15:19;96797.66;;;8.45;100.00
22938;BME280;11634;42.734;23.298;2022-10-18T07:17:46;96779.59;;;8.59;100.00
22938;BME280;11634;42.734;23.298;2022-10-18T07:20:13;96790.94;;;8.72;100.00
22938;BME280;11634;42.734;23.298;2022-10-18T07:22:39;96728.09;;;8.52;100.00
22938;BME280;11634;42.734;23.298;2022-10-18T07:25:05;96806.16;;;8.93;100.00
22938;BME280;11634;42.734;23.298;2022-10-18T07:27:36;96791.84;;;8.86;100.00
22938;BME280;11634;42.734;23.298;2022-10-18T07:30:04;96776.78;;;8.77;100.00
22938;BME280;11634;42.734;23.298;2022-10-18T07:32:30;96819.69;;;8.98;100.00
22938;BME280;11634;42.734;23.298;2022-10-18T07:34:55;96745.03;;;8.88;100.00
22938;BME280;11634;42.734;23.298;2022-10-18T07:37:21;96760.78;;;9.14;100.00
22938;BME280;11634;42.734;23.298;2022-10-18T07:39:46;96781.56;;;9.57;100.00
22938;BME280;11634;42.734;23.298;2022-10-18T07:42:12;96746.91;;;9.43;100.00
22938;BME280;11634;42.734;23.298;2022-10-18T07:44:38;96757.97;;;9.60;100.00
22938;BME280;11634;42.734;23.298;2022-10-18T07:47:04;96778.44;;;10.08;100.00
22938;BME280;11634;42.734;23.298;2022-10-18T07:49:29;96770.53;;;10.09;100.00
22938;BME280;11634;42.734;23.298;2022-10-18T07:51:55;96776.06;;;10.59;100.00
22938;BME280;11634;42.734;23.298;2022-10-18T07:54:20;96774.44;;;10.96;100.00
22938;BME280;11634;42.734;23.298;2022-10-18T07:56:47;96764.03;;;10.96;100.00
22938;BME280;11634;42.734;23.298;2022-10-18T07:59:12;96764.91;;;10.57;100.00
22938;BME280;11634;42.734;23.298;2022-10-18T08:01:38;96770.69;;;10.74;100.00
22938;BME280;11634;42.734;23.298;2022-10-18T08:04:03;96753.75;;;10.81;100.00
22938;BME280;11634;42.734;23.298;2022-10-18T08:06:29;96748.94;;;10.75;100.00
22938;BME280;11634;42.734;23.298;2022-10-18T08:08:55;96729.47;;;10.81;100.00
22938;BME280;11634;42.734;23.298;2022-10-18T08:11:22;96746.34;;;11.14;100.00
22938;BME280;11634;42.734;23.298;2022-10-18T08:13:48;96747.28;;;11.51;100.00
22938;BME280;11634;42.734;23.298;2022-10-18T08:16:21;96751.66;;;11.63;100.00
22938;BME280;11634;42.734;23.298;2022-10-18T08:18:46;96716.81;;;11.77;100.00
22938;BME280;11634;42.734;23.298;2022-10-18T08:21:14;96747.72;;;11.83;100.00
22938;BME280;11634;42.734;23.298;2022-10-18T08:23:40;96743.50;;;11.93;100.00
22938;BME280;11634;42.734;23.298;2022-10-18T08:26:11;96715.28;;;12.22;100.00
22938;BME280;11634;42.734;23.298;2022-10-18T08:28:37;96727.94;;;12.75;100.00
22938;BME280;11634;42.734;23.298;2022-10-18T08:31:09;96727.53;;;13.38;95.27
22938;BME280;11634;42.734;23.298;2022-10-18T08:33:36;96715.97;;;13.41;92.64
22938;BME280;11634;42.734;23.298;2022-10-18T08:36:04;96721.72;;;13.57;92.13
22938;BME280;11634;42.734;23.298;2022-10-18T08:38:31;96699.63;;;13.71;91.13
22938;BME280;11634;42.734;23.298;2022-10-18T08:43:57;96630.91;;;13.69;86.51
22938;BME280;11634;42.734;23.298;2022-10-18T08:46:27;96666.78;;;14.00;85.87
22938;BME280;11634;42.734;23.298;2022-10-18T08:48:53;96687.25;;;14.39;84.87
22938;BME280;11634;42.734;23.298;2022-10-18T08:51:31;96681.56;;;14.23;84.63
22938;BME280;11634;42.734;23.298;2022-10-18T08:54:07;96681.53;;;14.45;84.86
22938;BME280;11634;42.734;23.298;2022-10-18T08:56:34;96636.81;;;14.15;82.50
22938;BME280;11634;42.734;23.298;2022-10-18T08:59:01;96626.22;;;13.95;84.83
22938;BME280;11634;42.734;23.298;2022-10-18T09:05:30;96666.22;;;13.86;86.96
22938;BME280;11634;42.734;23.298;2022-10-18T09:21:43;96652.22;;;14.51;82.13
22938;BME280;11634;42.734;23.298;2022-10-18T09:24:24;96637.50;;;14.70;80.13
22938;BME280;11634;42.734;23.298;2022-10-18T09:26:56;96634.03;;;15.01;77.85
22938;BME280;11634;42.734;23.298;2022-10-18T09:32:09;96640.31;;;15.09;77.10
22938;BME280;11634;42.734;23.298;2022-10-18T09:34:41;96628.81;;;15.21;77.21
22938;BME280;11634;42.734;23.298;2022-10-18T09:37:15;96631.09;;;15.55;74.75
22938;BME280;11634;42.734;23.298;2022-10-18T09:39:43;96633.13;;;15.82;74.55
22938;BME280;11634;42.734;23.298;2022-10-18T09:42:17;96593.16;;;15.69;72.42
22938;BME280;11634;42.734;23.298;2022-10-18T09:44:54;96608.69;;;15.81;72.02
22938;BME280;11634;42.734;23.298;2022-10-18T09:47:31;96628.09;;;15.99;72.48
22938;BME280;11634;42.734;23.298;2022-10-18T09:50:15;96638.94;;;16.15;72.15
22938;BME280;11634;42.734;23.298;2022-10-18T09:52:52;96616.75;;;16.28;68.22
22938;BME280;11634;42.734;23.298;2022-10-18T09:55:27;96615.28;;;16.54;68.43
22938;BME280;11634;42.734;23.298;2022-10-18T09:57:59;96618.72;;;16.64;66.64
22938;BME280;11634;42.734;23.298;2022-10-18T10:00:32;96612.94;;;16.89;66.96
22938;BME280;11634;42.734;23.298;2022-10-18T10:03:00;96559.22;;;16.72;62.89
22938;BME280;11634;42.734;23.298;2022-10-18T10:05:26;96599.50;;;16.82;62.99
22938;BME280;11634;42.734;23.298;2022-10-18T10:07:57;96566.28;;;16.81;61.17
22938;BME280;11634;42.734;23.298;2022-10-18T10:10:25;96591.91;;;16.89;61.59
22938;BME280;11634;42.734;23.298;2022-10-18T10:13:17;96581.72;;;17.22;58.76
22938;BME280;11634;42.734;23.298;2022-10-18T10:16:00;96559.16;;;17.29;58.61
22938;BME280;11634;42.734;23.298;2022-10-18T10:18:28;96572.16;;;17.40;59.05
22938;BME280;11634;42.734;23.298;2022-10-18T10:21:00;96562.97;;;17.53;55.48
22938;BME280;11634;42.734;23.298;2022-10-18T10:23:38;96555.31;;;17.59;54.06
22938;BME280;11634;42.734;23.298;2022-10-18T10:26:27;96549.97;;;17.78;53.37
22938;BME280;11634;42.734;23.298;2022-10-18T10:28:53;96544.38;;;17.91;51.77
22938;BME280;11634;42.734;23.298;2022-10-18T10:31:32;96536.31;;;17.92;49.96
22938;BME280;11634;42.734;23.298;2022-10-18T10:34:01;96533.56;;;17.84;48.75
22938;BME280;11634;42.734;23.298;2022-10-18T10:36:27;96529.66;;;17.61;49.13
22938;BME280;11634;42.734;23.298;2022-10-18T10:39:11;96516.50;;;17.88;49.83
22938;BME280;11634;42.734;23.298;2022-10-18T10:41:37;96518.38;;;18.05;48.96
22938;BME280;11634;42.734;23.298;2022-10-18T10:44:14;96453.38;;;17.69;49.37
22938;BME280;11634;42.734;23.298;2022-10-18T10:46:40;96477.47;;;18.01;48.73
22938;BME280;11634;42.734;23.298;2022-10-18T10:49:05;96500.94;;;18.21;46.16
22938;BME280;11634;42.734;23.298;2022-10-18T10:51:40;96467.81;;;17.92;45.29
22938;BME280;11634;42.734;23.298;2022-10-18T10:54:21;96476.66;;;18.18;43.68
22938;BME280;11634;42.734;23.298;2022-10-18T10:57:05;96488.19;;;18.34;44.25
22938;BME280;11634;42.734;23.298;2022-10-18T11:04:39;96474.53;;;18.56;42.48
22938;BME280;11634;42.734;23.298;2022-10-18T11:14:58;96467.81;;;18.79;40.45
22938;BME280;11634;42.734;23.298;2022-10-18T11:20:39;96438.94;;;19.03;38.86
22938;BME280;11634;42.734;23.298;2022-10-18T11:23:10;96436.53;;;19.09;39.56
22938;BME280;11634;42.734;23.298;2022-10-18T11:28:22;96424.38;;;19.16;38.27
22938;BME280;11634;42.734;23.298;2022-10-18T11:39:09;96405.91;;;19.24;35.98
22938;BME280;11634;42.734;23.298;2022-10-18T11:41:46;96401.59;;;19.15;36.25
22938;BME280;11634;42.734;23.298;2022-10-18T11:44:26;96395.69;;;19.29;36.20
22938;BME280;11634;42.734;23.298;2022-10-18T11:47:12;96394.53;;;19.23;35.77
22938;BME280;11634;42.734;23.298;2022-10-18T11:50:06;96396.38;;;19.31;35.77
22938;BME280;11634;42.734;23.298;2022-10-18T11:52:50;96370.78;;;19.31;35.78
22938;BME280;11634;42.734;23.298;2022-10-18T12:00:49;96364.25;;;19.43;34.52
22938;BME280;11634;42.734;23.298;2022-10-18T12:06:14;96354.69;;;19.50;34.22
22938;BME280;11634;42.734;23.298;2022-10-18T12:08:45;96367.59;;;19.61;34.06
22938;BME280;11634;42.734;23.298;2022-10-18T12:11:14;96356.50;;;19.58;33.88
22938;BME280;11634;42.734;23.298;2022-10-18T12:13:52;96348.94;;;19.63;34.25
22938;BME280;11634;42.734;23.298;2022-10-18T12:16:23;96351.38;;;19.56;33.44
22938;BME280;11634;42.734;23.298;2022-10-18T12:19:04;96343.84;;;19.69;34.00
22938;BME280;11634;42.734;23.298;2022-10-18T12:21:33;96305.31;;;19.51;33.91
22938;BME280;11634;42.734;23.298;2022-10-18T12:24:09;96333.59;;;19.66;34.19
22938;BME280;11634;42.734;23.298;2022-10-18T12:26:36;96231.63;;;19.08;34.29
22938;BME280;11634;42.734;23.298;2022-10-18T12:31:51;96318.41;;;19.76;34.34
22938;BME280;11634;42.734;23.298;2022-10-18T12:42:26;96261.25;;;19.75;32.54
22938;BME280;11634;42.734;23.298;2022-10-18T12:45:04;96304.22;;;20.01;33.43
22938;BME280;11634;42.734;23.298;2022-10-18T12:47:31;96295.81;;;19.89;32.96
22938;BME280;11634;42.734;23.298;2022-10-18T12:50:03;96270.84;;;19.84;33.60
22938;BME280;11634;42.734;23.298;2022-10-18T12:52:30;96235.50;;;19.77;32.96
22938;BME280;11634;42.734;23.298;2022-10-18T13:16:48;96268.81;;;20.33;30.25
22938;BME280;11634;42.734;23.298;2022-10-18T13:19:45;96262.56;;;20.34;29.58
22938;BME280;11634;42.734;23.298;2022-10-18T13:25:27;96258.72;;;20.53;29.60
22938;BME280;11634;42.734;23.298;2022-10-18T13:28:05;96255.41;;;20.51;29.78
22938;BME280;11634;42.734;23.298;2022-10-18T13:33:49;96237.75;;;20.35;29.13
22938;BME280;11634;42.734;23.298;2022-10-18T13:36:24;96249.47;;;20.41;29.23
22938;BME280;11634;42.734;23.298;2022-10-18T14:05:48;96224.84;;;20.40;30.22
22938;BME280;11634;42.734;23.298;2022-10-18T14:11:29;96214.75;;;20.36;28.83
22938;BME280;11634;42.734;23.298;2022-10-18T14:19:56;96206.72;;;20.30;29.17
22938;BME280;11634;42.734;23.298;2022-10-18T14:22:28;96195.97;;;20.23;29.58
22938;BME280;11634;42.734;23.298;2022-10-18T14:24:58;96209.03;;;20.25;29.95
22938;BME280;11634;42.734;23.298;2022-10-18T14:27:26;96203.88;;;20.31;29.96
22938;BME280;11634;42.734;23.298;2022-10-18T14:32:43;96186.06;;;20.17;29.99
22938;BME280;11634;42.734;23.298;2022-10-18T14:35:20;96202.25;;;20.22;30.54
22938;BME280;11634;42.734;23.298;2022-10-18T14:37:49;96184.28;;;20.02;30.51
22938;BME280;11634;42.734;23.298;2022-10-18T14:40:36;96199.44;;;20.16;30.19
22938;BME280;11634;42.734;23.298;2022-10-18T14:43:17;96180.13;;;20.07;30.17
22938;BME280;11634;42.734;23.298;2022-10-18T14:45:43;96190.03;;;20.13;29.85
22938;BME280;11634;42.734;23.298;2022-10-18T14:48:22;96189.41;;;20.03;30.37
22938;BME280;11634;42.734;23.298;2022-10-18T14:50:58;96183.47;;;19.93;30.38
22938;BME280;11634;42.734;23.298;2022-10-18T14:53:27;96175.53;;;19.85;30.33
22938;BME280;11634;42.734;23.298;2022-10-18T14:55:58;96181.50;;;19.79;31.00
22938;BME280;11634;42.734;23.298;2022-10-18T14:58:34;96178.69;;;19.73;30.91
22938;BME280;11634;42.734;23.298;2022-10-18T15:01:01;96177.72;;;19.66;31.20
22938;BME280;11634;42.734;23.298;2022-10-18T15:03:31;96165.66;;;19.48;31.45
22938;BME280;11634;42.734;23.298;2022-10-18T15:06:02;96182.16;;;19.58;31.15
22938;BME280;11634;42.734;23.298;2022-10-18T15:08:38;96172.09;;;19.45;31.33
22938;BME280;11634;42.734;23.298;2022-10-18T15:11:06;96172.25;;;19.36;31.79
22938;BME280;11634;42.734;23.298;2022-10-18T15:13:34;96169.28;;;19.31;33.78
22938;BME280;11634;42.734;23.298;2022-10-18T15:16:03;96172.72;;;19.08;34.93
22938;BME280;11634;42.734;23.298;2022-10-18T15:18:29;96172.97;;;18.89;35.85
22938;BME280;11634;42.734;23.298;2022-10-18T15:21:23;96173.75;;;18.65;36.58
22938;BME280;11634;42.734;23.298;2022-10-18T15:23:50;96162.00;;;18.44;38.15
22938;BME280;11634;42.734;23.298;2022-10-18T15:26:31;96165.53;;;18.27;38.84
22938;BME280;11634;42.734;23.298;2022-10-18T15:28:57;96163.06;;;18.01;39.26
22938;BME280;11634;42.734;23.298;2022-10-18T15:31:34;96149.50;;;17.88;40.20
22938;BME280;11634;42.734;23.298;2022-10-18T15:34:23;96152.13;;;17.62;40.31
22938;BME280;11634;42.734;23.298;2022-10-18T15:36:52;96121.19;;;17.22;41.62
22938;BME280;11634;42.734;23.298;2022-10-18T15:39:21;96123.59;;;17.15;42.12